Time;durP1;ratioP1;P1;durP2;ratioP2;P2;SDS_P1;SDS_P2;PMS_P1;PMS_P2;Temp;Humidity;BMP_temperature;BMP_pressure;BME280_temperature;BME280_humidity;BME280_pressure;Samples;Min_cycle;Max_cycle;Signal;HPM_P1;HPM_P2
2021/11/11 00:00:51;;;;;;;127.50;51.50;;;9.20;99.90;;;;;;5086035;28;20647;-92
2021/11/11 00:03:45;;;;;;;139.68;51.40;;;9.20;99.90;;;;;;5103910;27;20549;-91
2021/11/11 00:06:17;;;;;;;130.70;51.10;;;9.10;99.90;;;;;;5107550;28;20047;-90
2021/11/11 00:09:08;;;;;;;144.18;52.25;;;9.20;99.90;;;;;;5072171;28;20051;-91
2021/11/11 00:11:37;;;;;;;140.35;54.55;;;9.10;99.90;;;;;;5092204;28;20091;-92
2021/11/11 00:14:08;;;;;;;147.18;52.47;;;9.10;99.90;;;;;;5086933;28;20056;-90
2021/11/11 00:16:35;;;;;;;132.07;51.22;;;9.10;99.90;;;;;;5102420;28;20541;-91
2021/11/11 00:19:04;;;;;;;140.20;54.42;;;9.10;99.90;;;;;;5057266;28;20051;-91
2021/11/11 00:21:33;;;;;;;138.93;51.75;;;9.20;99.90;;;;;;5070598;28;20100;-91
2021/11/11 00:24:02;;;;;;;133.57;52.45;;;9.20;99.90;;;;;;5088397;28;20048;-91
2021/11/11 00:26:28;;;;;;;135.98;52.13;;;9.10;99.90;;;;;;5071214;28;20118;-90
2021/11/11 00:28:57;;;;;;;146.15;53.20;;;9.20;99.90;;;;;;5101805;28;20134;-91
2021/11/11 00:31:23;;;;;;;140.40;51.10;;;9.10;99.90;;;;;;5072144;28;20040;-90
2021/11/11 00:33:49;;;;;;;142.65;54.05;;;9.00;99.90;;;;;;5069170;28;20055;-91
2021/11/11 00:36:31;;;;;;;137.57;51.67;;;9.10;99.90;;;;;;5088193;28;20068;-91
2021/11/11 00:39:05;;;;;;;147.73;53.83;;;9.00;99.90;;;;;;5073026;28;20409;-93
2021/11/11 00:41:53;;;;;;;135.50;52.45;;;9.10;99.90;;;;;;5103979;28;20047;-91
2021/11/11 00:44:19;;;;;;;132.65;52.30;;;9.10;99.90;;;;;;5105593;28;20062;-89
2021/11/11 00:46:46;;;;;;;130.30;50.50;;;9.10;99.90;;;;;;5069234;28;20036;-88
2021/11/11 00:49:12;;;;;;;131.80;52.10;;;9.20;99.90;;;;;;5072439;28;20371;-88
2021/11/11 00:51:39;;;;;;;135.10;52.67;;;9.20;99.90;;;;;;5069113;28;20048;-89
2021/11/11 00:54:06;;;;;;;142.73;52.40;;;9.20;99.90;;;;;;5087908;28;20397;-88
2021/11/11 00:56:34;;;;;;;139.45;51.13;;;9.10;99.90;;;;;;5104800;28;20040;-89
2021/11/11 00:59:02;;;;;;;124.95;50.47;;;9.10;99.90;;;;;;5087096;28;20096;-88
2021/11/11 01:01:29;;;;;;;123.40;50.50;;;9.20;99.90;;;;;;5071711;28;20040;-91
2021/11/11 01:04:42;;;;;;;124.75;50.03;;;9.20;99.90;;;;;;5074081;28;20114;-90
2021/11/11 01:11:16;;;;;;;116.30;47.42;;;9.20;99.90;;;;;;5099722;28;20055;-89
2021/11/11 01:13:42;;;;;;;128.25;46.95;;;9.20;99.90;;;;;;5064403;27;20093;-91
2021/11/11 01:16:08;;;;;;;130.60;47.17;;;9.20;99.90;;;;;;5082912;28;20421;-90
2021/11/11 01:18:34;;;;;;;117.35;45.42;;;9.20;99.90;;;;;;5061774;28;20555;-88
2021/11/11 01:21:00;;;;;;;116.43;47.13;;;9.30;99.90;;;;;;5083717;27;20181;-88
2021/11/11 01:23:26;;;;;;;113.47;45.72;;;9.20;99.90;;;;;;5060065;28;20152;-88
2021/11/11 01:25:52;;;;;;;112.97;46.20;;;9.20;99.90;;;;;;5064911;28;20079;-87
2021/11/11 01:28:17;;;;;;;107.28;43.65;;;9.30;99.90;;;;;;5074172;28;20042;-88
2021/11/11 01:30:44;;;;;;;105.30;42.92;;;9.20;99.90;;;;;;5071864;28;20520;-89
2021/11/11 01:33:12;;;;;;;118.68;45.58;;;9.10;99.90;;;;;;5093509;28;20811;-90
2021/11/11 01:35:41;;;;;;;101.63;44.38;;;9.20;99.90;;;;;;5096952;27;20093;-91
2021/11/11 01:38:08;;;;;;;115.78;43.30;;;9.10;99.90;;;;;;5077265;28;20461;-91
2021/11/11 01:40:34;;;;;;;105.68;43.63;;;9.20;99.90;;;;;;5073360;28;20622;-89
2021/11/11 01:43:03;;;;;;;103.65;43.47;;;9.20;99.90;;;;;;5081344;28;20060;-88
2021/11/11 01:45:35;;;;;;;98.20;40.10;;;9.20;99.90;;;;;;5107809;28;20035;-89
2021/11/11 01:48:03;;;;;;;110.65;44.03;;;9.20;99.90;;;;;;5089732;28;20054;-89
2021/11/11 01:50:30;;;;;;;100.70;41.50;;;9.30;99.90;;;;;;5086057;28;20047;-90
2021/11/11 01:52:57;;;;;;;96.65;40.30;;;9.20;99.90;;;;;;5081108;28;20039;-89
2021/11/11 01:55:23;;;;;;;90.88;38.60;;;9.20;99.90;;;;;;5056309;28;20050;-89
2021/11/11 01:57:51;;;;;;;102.88;40.38;;;9.20;99.90;;;;;;5090585;28;20036;-89
2021/11/11 02:00:33;;;;;;;97.43;39.15;;;9.30;99.90;;;;;;5072932;28;20097;-88
2021/11/11 02:03:05;;;;;;;100.05;40.85;;;9.30;99.90;;;;;;5095036;28;20032;-88
2021/11/11 02:05:32;;;;;;;89.45;39.15;;;9.20;99.90;;;;;;5089705;28;20043;-87
2021/11/11 02:07:58;;;;;;;102.57;39.15;;;9.20;99.90;;;;;;5090224;28;20061;-85
2021/11/11 02:10:25;;;;;;;100.38;39.45;;;9.20;99.90;;;;;;5091143;28;20443;-86
2021/11/11 02:12:52;;;;;;;96.47;36.85;;;9.20;99.90;;;;;;5088688;28;20367;-87
2021/11/11 02:15:19;;;;;;;96.93;36.33;;;9.10;99.90;;;;;;5107924;28;20517;-88
2021/11/11 02:17:45;;;;;;;106.03;39.10;;;9.20;99.90;;;;;;5105697;28;20052;-87
2021/11/11 02:20:14;;;;;;;109.55;38.13;;;9.20;99.90;;;;;;5108473;28;20082;-86
2021/11/11 02:22:40;;;;;;;79.15;34.78;;;9.10;99.90;;;;;;5088425;28;20154;-87
2021/11/11 02:25:15;;;;;;;102.13;35.90;;;9.20;99.90;;;;;;5091053;28;20104;-87
2021/11/11 02:27:44;;;;;;;91.82;34.50;;;9.10;99.90;;;;;;5090524;28;20485;-90
2021/11/11 02:30:13;;;;;;;93.90;35.78;;;9.10;99.90;;;;;;5088642;28;20039;-90
2021/11/11 02:32:40;;;;;;;99.90;35.70;;;9.20;99.90;;;;;;5091034;28;20058;-90
2021/11/11 02:35:09;;;;;;;91.20;33.40;;;9.10;99.90;;;;;;5105224;28;20040;-90
2021/11/11 02:37:39;;;;;;;90.47;33.67;;;9.10;99.90;;;;;;5090018;28;20040;-89
2021/11/11 02:40:10;;;;;;;81.55;33.70;;;9.10;99.90;;;;;;5085234;28;20079;-89
2021/11/11 02:42:37;;;;;;;86.82;32.95;;;9.20;99.90;;;;;;5082209;28;20088;-90
2021/11/11 02:45:06;;;;;;;86.50;33.22;;;9.10;99.90;;;;;;5069721;28;20306;-90
2021/11/11 02:47:33;;;;;;;87.15;32.95;;;9.10;99.90;;;;;;5063335;28;20036;-91
2021/11/11 02:49:59;;;;;;;91.03;33.08;;;9.10;99.90;;;;;;5106877;28;20500;-90
2021/11/11 02:52:25;;;;;;;73.72;31.83;;;9.10;99.90;;;;;;5088882;28;20067;-90
2021/11/11 02:54:51;;;;;;;80.72;31.95;;;9.00;99.90;;;;;;5069382;28;20044;-88
2021/11/11 02:57:32;;;;;;;72.22;30.33;;;9.10;99.90;;;;;;5105886;28;20047;-85
2021/11/11 03:00:00;;;;;;;77.47;29.58;;;9.10;99.90;;;;;;5089037;28;20130;-85
2021/11/11 03:02:31;;;;;;;71.80;29.00;;;9.20;99.90;;;;;;5106926;28;20126;-85
2021/11/11 03:04:58;;;;;;;75.20;29.17;;;9.10;99.90;;;;;;5085615;28;20097;-85
2021/11/11 03:07:25;;;;;;;84.93;31.45;;;9.20;99.90;;;;;;5090545;28;20122;-86
2021/11/11 03:09:53;;;;;;;77.55;30.25;;;9.10;99.90;;;;;;5105720;28;20066;-85
2021/11/11 03:12:19;;;;;;;83.63;31.15;;;9.10;99.90;;;;;;5091577;28;20086;-86
2021/11/11 03:14:46;;;;;;;86.82;28.58;;;9.10;99.90;;;;;;5088858;28;20083;-86
2021/11/11 03:17:13;;;;;;;70.60;28.17;;;9.10;99.90;;;;;;5106476;28;20122;-86
2021/11/11 03:19:52;;;;;;;75.68;28.15;;;9.10;99.90;;;;;;5089832;28;20039;-86
2021/11/11 03:22:19;;;;;;;71.70;27.88;;;9.10;99.90;;;;;;5105186;28;20046;-86
2021/11/11 03:24:46;;;;;;;73.60;27.98;;;9.00;99.90;;;;;;5106432;28;20154;-86
2021/11/11 03:27:13;;;;;;;68.63;27.70;;;9.10;99.90;;;;;;5088453;28;20036;-87
2021/11/11 03:29:39;;;;;;;77.80;29.13;;;9.10;99.90;;;;;;5072714;28;20035;-87
2021/11/11 03:32:05;;;;;;;67.00;28.40;;;9.10;99.90;;;;;;5072787;28;20046;-88
2021/11/11 03:34:31;;;;;;;82.50;29.08;;;9.10;99.90;;;;;;5105506;28;20101;-88
2021/11/11 03:36:57;;;;;;;66.88;26.77;;;9.10;99.90;;;;;;5072766;28;20046;-88
2021/11/11 03:39:24;;;;;;;67.60;28.33;;;9.10;99.90;;;;;;5087815;28;20118;-88
2021/11/11 03:41:52;;;;;;;77.22;27.92;;;9.10;99.90;;;;;;5106396;28;20086;-89
2021/11/11 03:44:20;;;;;;;63.88;27.38;;;9.10;99.90;;;;;;5086454;28;20485;-90
2021/11/11 03:46:49;;;;;;;68.60;28.48;;;9.10;99.90;;;;;;5088520;28;20069;-89
2021/11/11 03:49:15;;;;;;;72.60;28.63;;;9.10;99.90;;;;;;5087919;28;20039;-86
2021/11/11 03:51:42;;;;;;;69.28;25.90;;;9.10;99.90;;;;;;5088746;28;20352;-89
2021/11/11 03:54:09;;;;;;;71.40;29.08;;;9.10;99.90;;;;;;5088562;28;20035;-88
2021/11/11 03:56:36;;;;;;;69.72;27.77;;;9.10;99.90;;;;;;5057011;28;20036;-89
2021/11/11 03:59:02;;;;;;;73.28;27.48;;;9.10;99.90;;;;;;5088761;28;20043;-88
2021/11/11 04:01:28;;;;;;;80.43;28.70;;;9.10;99.90;;;;;;5076653;27;20043;-91
2021/11/11 04:03:55;;;;;;;85.50;29.02;;;9.00;99.90;;;;;;5105063;28;20474;-86
2021/11/11 04:06:21;;;;;;;70.68;28.25;;;9.00;99.90;;;;;;5058538;28;20069;-87
2021/11/11 04:08:47;;;;;;;69.13;28.13;;;9.10;99.90;;;;;;5088011;28;20046;-91
2021/11/11 04:11:14;;;;;;;81.88;30.13;;;9.20;99.90;;;;;;5054222;28;20066;-90
2021/11/11 04:13:41;;;;;;;81.65;29.75;;;9.00;99.90;;;;;;5061985;28;20047;-89
2021/11/11 04:16:07;;;;;;;85.25;30.48;;;9.10;99.90;;;;;;5090295;28;20047;-90
2021/11/11 04:18:37;;;;;;;78.30;29.77;;;9.10;99.90;;;;;;5089873;28;20035;-90
2021/11/11 04:21:03;;;;;;;90.60;29.67;;;9.10;99.90;;;;;;5074864;28;20058;-90
2021/11/11 04:23:29;;;;;;;78.43;28.92;;;9.10;99.90;;;;;;5052284;28;20040;-88
2021/11/11 04:28:31;;;;;;;81.97;30.60;;;9.00;99.90;;;;;;5107786;28;20123;-86
2021/11/11 04:31:03;;;;;;;88.28;32.80;;;9.00;99.90;;;;;;5076444;27;20345;-85
2021/11/11 04:33:29;;;;;;;87.65;31.88;;;9.00;99.90;;;;;;5092553;28;20043;-85
2021/11/11 04:36:03;;;;;;;100.70;33.80;;;9.00;99.90;;;;;;5059061;27;20035;-85
2021/11/11 04:43:58;;;;;;;88.22;31.73;;;9.00;99.90;;;;;;5112431;27;20058;-86
2021/11/11 04:51:50;;;;;;;91.13;31.23;;;9.00;99.90;;;;;;5112980;27;20485;-87
2021/11/11 05:02:38;;;;;;;92.55;33.35;;;9.00;99.90;;;;;;5093736;27;20107;-87
2021/11/11 05:05:06;;;;;;;93.22;33.50;;;9.00;99.90;;;;;;5095286;27;20504;-87
2021/11/11 05:07:31;;;;;;;91.38;33.53;;;9.00;99.90;;;;;;5094674;27;20062;-85
2021/11/11 05:09:57;;;;;;;99.78;35.75;;;9.10;99.90;;;;;;5094322;27;20473;-85
2021/11/11 05:12:23;;;;;;;113.40;34.75;;;9.00;99.90;;;;;;5112973;27;20074;-85
2021/11/11 05:14:50;;;;;;;93.88;34.70;;;9.10;99.90;;;;;;5093982;27;20396;-85
2021/11/11 05:17:22;;;;;;;101.38;36.10;;;9.10;99.90;;;;;;5095504;27;20478;-85
2021/11/11 05:19:49;;;;;;;98.80;37.85;;;9.00;99.90;;;;;;5094004;27;20386;-85
2021/11/11 05:22:14;;;;;;;105.93;37.05;;;9.00;99.90;;;;;;5112592;27;20488;-84
2021/11/11 05:24:40;;;;;;;109.47;36.70;;;9.10;99.90;;;;;;5110856;27;20100;-85
2021/11/11 05:27:15;;;;;;;102.90;36.80;;;9.10;99.90;;;;;;5094588;27;20499;-85
2021/11/11 05:29:43;;;;;;;122.32;40.30;;;9.00;99.90;;;;;;5110764;27;20039;-85
2021/11/11 05:32:09;;;;;;;112.85;41.13;;;9.00;99.90;;;;;;5088360;27;20040;-86
2021/11/11 05:34:35;;;;;;;119.47;41.25;;;9.10;99.90;;;;;;5112094;27;20043;-85
2021/11/11 05:37:01;;;;;;;113.30;40.22;;;9.00;99.90;;;;;;5091689;27;20109;-86
2021/11/11 05:39:27;;;;;;;125.25;41.63;;;9.10;99.90;;;;;;5072126;27;20545;-85
2021/11/11 05:41:54;;;;;;;118.80;42.30;;;9.10;99.90;;;;;;5093358;27;20043;-85
2021/11/11 05:44:20;;;;;;;118.85;42.30;;;9.10;99.90;;;;;;5077521;27;20696;-86
2021/11/11 05:46:46;;;;;;;116.55;43.47;;;9.10;99.90;;;;;;5092053;27;20047;-87
2021/11/11 05:49:11;;;;;;;123.18;43.03;;;9.10;99.90;;;;;;5076765;27;20035;-87
2021/11/11 05:51:37;;;;;;;125.50;45.75;;;9.10;99.90;;;;;;5095239;27;20051;-88
2021/11/11 05:54:03;;;;;;;126.20;46.00;;;9.10;99.90;;;;;;5055155;28;20393;-90
2021/11/11 05:56:29;;;;;;;127.88;46.78;;;9.10;99.90;;;;;;5056537;27;20047;-87
2021/11/11 05:58:54;;;;;;;132.25;49.35;;;9.20;99.90;;;;;;5076539;27;20039;-89
2021/11/11 06:01:20;;;;;;;140.00;47.83;;;9.10;99.90;;;;;;5072532;28;20163;-88
2021/11/11 06:03:46;;;;;;;131.85;48.45;;;9.10;99.90;;;;;;5075132;27;20035;-90
2021/11/11 06:06:45;;;;;;;130.07;50.03;;;9.10;99.90;;;;;;5092292;27;20497;-90
2021/11/11 06:09:53;;;;;;;140.15;50.70;;;9.20;99.90;;;;;;5109538;27;20047;-94
2021/11/11 06:12:18;;;;;;;143.15;52.70;;;9.20;99.90;;;;;;5090384;27;20157;-86
2021/11/11 06:14:52;;;;;;;149.23;52.30;;;9.20;99.90;;;;;;5091889;27;20138;-90
2021/11/11 06:17:18;;;;;;;139.30;53.45;;;9.10;99.90;;;;;;5110328;27;20055;-88
2021/11/11 06:19:46;;;;;;;162.50;58.42;;;9.20;99.90;;;;;;5093318;27;20500;-85
2021/11/11 06:22:13;;;;;;;154.05;56.53;;;9.20;99.90;;;;;;5110491;27;20046;-85
2021/11/11 06:24:39;;;;;;;156.73;58.30;;;9.20;99.90;;;;;;5090204;28;20039;-85
2021/11/11 06:27:05;;;;;;;150.95;57.55;;;9.20;99.90;;;;;;5079588;28;20516;-86
2021/11/11 06:29:31;;;;;;;153.40;57.45;;;9.20;99.90;;;;;;5107050;27;20043;-85
2021/11/11 06:31:57;;;;;;;155.00;55.33;;;9.20;99.90;;;;;;5074225;27;20362;-85
2021/11/11 06:34:22;;;;;;;159.07;58.55;;;9.20;99.90;;;;;;5092328;27;20447;-86
2021/11/11 06:36:48;;;;;;;157.95;58.85;;;9.20;99.90;;;;;;5110413;27;20031;-85
2021/11/11 06:39:14;;;;;;;165.38;60.55;;;9.20;99.90;;;;;;5110343;27;20039;-85
2021/11/11 06:41:40;;;;;;;160.88;59.25;;;9.20;99.90;;;;;;5109125;27;20364;-87
2021/11/11 06:44:05;;;;;;;178.25;61.78;;;9.20;99.90;;;;;;5113152;27;20133;-85
2021/11/11 06:46:31;;;;;;;173.77;61.65;;;9.20;99.90;;;;;;5092175;27;20075;-87
2021/11/11 06:48:57;;;;;;;194.20;65.68;;;9.20;99.90;;;;;;5095924;28;20050;-86
2021/11/11 06:51:23;;;;;;;178.50;64.57;;;9.20;99.90;;;;;;5058843;27;20043;-86
2021/11/11 06:53:49;;;;;;;195.65;64.20;;;9.20;99.90;;;;;;5092689;27;20070;-86
2021/11/11 06:56:15;;;;;;;193.75;65.60;;;9.10;99.90;;;;;;5075810;27;20039;-86
2021/11/11 06:58:41;;;;;;;201.32;67.40;;;9.20;99.90;;;;;;5091477;27;20062;-87
2021/11/11 07:01:07;;;;;;;180.63;65.00;;;9.20;99.90;;;;;;5096202;27;20039;-88
2021/11/11 07:03:33;;;;;;;167.48;63.33;;;9.20;99.90;;;;;;5077268;27;20039;-86
2021/11/11 07:05:59;;;;;;;170.18;64.15;;;9.30;99.90;;;;;;5110367;27;20046;-87
2021/11/11 07:08:25;;;;;;;181.20;65.97;;;9.20;99.90;;;;;;5090784;27;20035;-86
2021/11/11 07:10:53;;;;;;;178.50;64.63;;;9.30;99.90;;;;;;5076201;27;20043;-87
2021/11/11 07:13:20;;;;;;;172.30;64.82;;;9.20;99.90;;;;;;5085053;28;20448;-86
2021/11/11 07:15:46;;;;;;;165.82;62.90;;;9.30;99.90;;;;;;5103889;28;20059;-87
2021/11/11 07:18:13;;;;;;;179.73;63.60;;;9.20;99.90;;;;;;5076702;28;20047;-87
2021/11/11 07:20:43;;;;;;;163.20;60.70;;;9.20;99.90;;;;;;5088663;28;20136;-87
2021/11/11 07:23:10;;;;;;;154.32;61.83;;;9.30;99.90;;;;;;5076351;28;20039;-88
2021/11/11 07:25:36;;;;;;;157.38;61.97;;;9.30;99.90;;;;;;5104360;28;20074;-86
2021/11/11 07:28:02;;;;;;;152.98;62.47;;;9.30;99.90;;;;;;5089737;28;20466;-87
2021/11/11 07:30:28;;;;;;;152.25;60.83;;;9.30;99.90;;;;;;5054911;28;20119;-86
2021/11/11 07:32:54;;;;;;;160.07;60.65;;;9.30;99.90;;;;;;5089541;28;20134;-87
2021/11/11 07:35:20;;;;;;;157.20;59.13;;;9.30;99.90;;;;;;5088957;28;20040;-87
2021/11/11 07:37:50;;;;;;;135.70;55.17;;;9.30;99.90;;;;;;5087794;28;20043;-89
2021/11/11 07:40:18;;;;;;;159.02;57.42;;;9.20;99.90;;;;;;5106387;28;20047;-88
2021/11/11 07:42:44;;;;;;;138.70;55.17;;;9.30;99.90;;;;;;5105087;28;20061;-87
2021/11/11 07:45:12;;;;;;;142.90;55.50;;;9.30;99.90;;;;;;5072361;28;20054;-88
2021/11/11 07:47:38;;;;;;;135.88;53.45;;;9.30;99.90;;;;;;5088021;28;20039;-87
2021/11/11 07:50:07;;;;;;;157.48;55.88;;;9.40;99.90;;;;;;5072283;28;20043;-87
2021/11/11 07:52:33;;;;;;;142.57;53.65;;;9.40;99.90;;;;;;5086571;28;20450;-87
2021/11/11 07:54:59;;;;;;;141.50;52.17;;;9.40;99.90;;;;;;5070095;28;20048;-88
2021/11/11 07:57:28;;;;;;;144.45;53.45;;;9.40;99.90;;;;;;5055325;28;20044;-88
2021/11/11 07:59:54;;;;;;;141.05;51.42;;;9.40;99.90;;;;;;5086765;28;20059;-88
2021/11/11 08:02:21;;;;;;;139.05;52.28;;;9.50;99.90;;;;;;5094658;28;20100;-87
2021/11/11 08:04:47;;;;;;;149.25;55.55;;;9.50;99.90;;;;;;5087329;28;20035;-89
2021/11/11 08:07:17;;;;;;;129.32;52.25;;;9.50;99.90;;;;;;5088345;28;20458;-88
2021/11/11 08:09:43;;;;;;;147.60;53.83;;;9.50;99.90;;;;;;5076318;28;20432;-88
2021/11/11 08:12:10;;;;;;;150.10;52.65;;;9.50;99.90;;;;;;5065411;28;20091;-87
2021/11/11 08:14:36;;;;;;;146.60;52.25;;;9.60;99.90;;;;;;5087802;28;20060;-89
2021/11/11 08:17:02;;;;;;;140.60;53.72;;;9.50;99.90;;;;;;5060074;28;20044;-90
2021/11/11 08:19:27;;;;;;;150.85;53.28;;;9.60;99.90;;;;;;5069676;28;20081;-87
2021/11/11 08:21:53;;;;;;;140.18;51.88;;;9.60;99.90;;;;;;5066956;28;20047;-88
2021/11/11 08:24:19;;;;;;;147.32;52.38;;;9.60;99.90;;;;;;5084355;28;20063;-88
2021/11/11 08:26:45;;;;;;;141.15;51.35;;;9.70;99.90;;;;;;5087062;28;20040;-87
2021/11/11 08:29:10;;;;;;;143.40;50.72;;;9.70;99.90;;;;;;5066127;28;20055;-89
2021/11/11 08:31:36;;;;;;;146.63;53.47;;;9.70;99.90;;;;;;5088775;28;20591;-89
2021/11/11 08:34:02;;;;;;;143.82;53.22;;;9.70;99.90;;;;;;5066636;28;20043;-89
2021/11/11 08:36:28;;;;;;;164.02;56.25;;;9.70;99.90;;;;;;5088422;28;20643;-88
2021/11/11 08:38:58;;;;;;;162.32;56.25;;;9.70;99.90;;;;;;5053994;28;20043;-88
2021/11/11 08:41:26;;;;;;;139.02;55.22;;;9.70;99.90;;;;;;5088307;28;20043;-88
2021/11/11 08:43:54;;;;;;;162.38;55.22;;;9.70;99.90;;;;;;5069277;28;20393;-92
2021/11/11 08:46:20;;;;;;;153.60;55.95;;;9.70;99.90;;;;;;5088133;28;20051;-88
2021/11/11 08:48:46;;;;;;;168.73;57.25;;;9.80;99.90;;;;;;5088001;28;20039;-90
2021/11/11 08:51:12;;;;;;;161.23;58.00;;;9.80;99.90;;;;;;5067205;28;20075;-89
2021/11/11 08:53:38;;;;;;;163.63;56.45;;;9.80;99.90;;;;;;5104135;28;20083;-88
2021/11/11 08:56:05;;;;;;;147.02;53.97;;;9.80;99.90;;;;;;5084101;28;20063;-88
2021/11/11 08:58:32;;;;;;;139.20;54.70;;;9.80;99.90;;;;;;5085163;28;20043;-80
2021/11/11 09:01:02;;;;;;;150.85;54.78;;;9.80;99.90;;;;;;5100107;28;20051;-80
2021/11/11 09:03:29;;;;;;;140.85;54.45;;;9.90;99.90;;;;;;5102722;28;20159;-80
2021/11/11 09:05:54;;;;;;;152.25;56.00;;;9.80;99.90;;;;;;5085947;28;20238;-80
2021/11/11 09:08:20;;;;;;;140.90;53.33;;;9.90;99.90;;;;;;5101967;28;20614;-80
2021/11/11 09:10:46;;;;;;;148.65;54.75;;;9.90;99.90;;;;;;5066917;28;20058;-80
2021/11/11 09:13:12;;;;;;;144.30;54.50;;;10.00;99.90;;;;;;5101515;28;20270;-81
2021/11/11 09:15:38;;;;;;;133.38;52.65;;;9.90;99.90;;;;;;5102834;28;20051;-80
2021/11/11 09:18:07;;;;;;;156.32;55.38;;;9.90;99.90;;;;;;5103987;28;20092;-80
2021/11/11 09:20:35;;;;;;;143.40;55.60;;;9.90;99.90;;;;;;5104993;28;20557;-80
2021/11/11 09:23:01;;;;;;;139.43;52.28;;;9.90;99.90;;;;;;5107363;28;20063;-80
2021/11/11 09:25:31;;;;;;;157.98;57.00;;;10.00;99.90;;;;;;5088964;28;20078;-81
2021/11/11 09:27:59;;;;;;;136.68;51.92;;;10.10;99.90;;;;;;5119772;27;20406;-81
2021/11/11 09:30:30;;;;;;;144.45;54.97;;;10.10;99.90;;;;;;5076211;28;20367;-81
2021/11/11 09:32:56;;;;;;;141.60;52.17;;;10.10;99.90;;;;;;5106726;28;20062;-81
2021/11/11 09:35:22;;;;;;;155.13;53.97;;;10.20;99.90;;;;;;5070891;28;20043;-81
2021/11/11 09:37:49;;;;;;;134.65;52.28;;;10.20;99.90;;;;;;5106049;28;20031;-81
2021/11/11 09:40:18;;;;;;;143.85;53.65;;;10.20;99.90;;;;;;5106543;28;20393;-81
2021/11/11 09:42:45;;;;;;;141.45;54.78;;;10.20;99.90;;;;;;5104912;28;20043;-81
2021/11/11 09:45:13;;;;;;;144.90;51.40;;;10.20;99.90;;;;;;5097825;28;20039;-81
2021/11/11 09:47:40;;;;;;;166.93;54.95;;;10.30;99.90;;;;;;5078762;28;20118;-81
2021/11/11 09:50:09;;;;;;;154.32;55.92;;;10.30;99.90;;;;;;5104585;28;20070;-81
2021/11/11 09:52:39;;;;;;;152.27;54.13;;;10.30;99.90;;;;;;5101578;28;20061;-81
2021/11/11 10:00:36;;;;;;;162.50;55.03;;;10.30;99.90;;;;;;5106763;28;20047;-81
2021/11/11 10:03:02;;;;;;;151.02;52.22;;;10.30;99.90;;;;;;5109385;27;20040;-81
2021/11/11 10:05:27;;;;;;;173.60;56.22;;;10.40;99.90;;;;;;5089290;28;20099;-81
2021/11/11 10:07:53;;;;;;;154.02;53.60;;;10.30;99.90;;;;;;5108320;28;20051;-81
2021/11/11 10:10:30;;;;;;;168.65;54.17;;;10.40;99.90;;;;;;5106785;28;20539;-81
2021/11/11 10:13:11;;;;;;;177.38;57.42;;;10.40;99.90;;;;;;5107901;28;20051;-81
2021/11/11 10:16:04;;;;;;;179.90;55.72;;;10.50;99.90;;;;;;5106946;28;20055;-80
2021/11/11 10:18:49;;;;;;;169.00;54.05;;;10.50;99.90;;;;;;5102773;28;20073;-82
2021/11/11 10:24:36;;;;;;;172.15;54.22;;;10.60;99.90;;;;;;5092816;28;20052;-82
2021/11/11 10:27:12;;;;;;;169.73;54.60;;;10.60;99.90;;;;;;5086900;28;20425;-81
2021/11/11 10:29:42;;;;;;;166.02;54.88;;;10.70;99.90;;;;;;5081051;28;20078;-82
2021/11/11 10:32:10;;;;;;;152.38;50.22;;;10.60;99.90;;;;;;5103591;28;20047;-82
2021/11/11 10:35:04;;;;;;;149.23;51.92;;;10.70;99.90;;;;;;5087573;28;20048;-83
2021/11/11 10:37:36;;;;;;;124.75;49.05;;;10.80;99.90;;;;;;5103112;28;20056;-82
2021/11/11 10:40:15;;;;;;;128.23;47.78;;;10.80;99.90;;;;;;5080218;28;20486;-83
2021/11/11 10:43:02;;;;;;;118.75;47.30;;;10.70;99.90;;;;;;5081100;28;20107;-82
2021/11/11 10:45:31;;;;;;;145.43;50.50;;;10.80;99.90;;;;;;5096286;28;20595;-83
2021/11/11 10:51:31;;;;;;;144.10;51.80;;;10.90;99.90;;;;;;5080962;28;20173;-82
2021/11/11 10:54:04;;;;;;;136.88;49.55;;;11.00;99.90;;;;;;5069907;28;20468;-81
2021/11/11 10:56:41;;;;;;;130.20;50.53;;;11.00;99.90;;;;;;5077304;28;20142;-82
2021/11/11 10:59:17;;;;;;;122.40;47.10;;;10.90;99.90;;;;;;5079117;28;20401;-81
2021/11/11 11:01:44;;;;;;;118.68;46.08;;;10.90;99.90;;;;;;5101476;28;20489;-81
2021/11/11 11:04:24;;;;;;;121.35;46.97;;;10.90;99.90;;;;;;5101268;28;20116;-81
2021/11/11 11:06:50;;;;;;;120.20;47.03;;;10.90;99.90;;;;;;5102713;28;20130;-80
2021/11/11 11:09:16;;;;;;;124.78;50.22;;;10.90;99.90;;;;;;5104628;28;20599;-81
2021/11/11 11:11:43;;;;;;;122.47;47.10;;;10.80;99.90;;;;;;5100061;28;20131;-81
2021/11/11 11:14:17;;;;;;;110.50;46.00;;;10.80;99.90;;;;;;5105107;27;20047;-80
2021/11/11 11:16:44;;;;;;;108.85;43.33;;;10.90;99.90;;;;;;5091414;28;20489;-81
2021/11/11 11:19:16;;;;;;;119.80;48.00;;;10.80;99.90;;;;;;5103280;27;20031;-80
2021/11/11 11:21:46;;;;;;;116.55;45.65;;;10.80;99.90;;;;;;5102330;27;20040;-81
2021/11/11 11:24:17;;;;;;;111.15;46.13;;;10.80;99.90;;;;;;5109157;27;20066;-81
2021/11/11 11:26:46;;;;;;;104.80;44.88;;;10.80;99.90;;;;;;5108997;27;20050;-81
2021/11/11 11:29:26;;;;;;;116.30;46.20;;;10.90;99.90;;;;;;5099979;28;20044;-81
2021/11/11 11:31:53;;;;;;;113.45;45.40;;;10.90;99.90;;;;;;5100008;27;20412;-81
2021/11/11 11:34:20;;;;;;;102.05;43.42;;;10.90;99.90;;;;;;5099529;27;20057;-81
2021/11/11 11:37:04;;;;;;;110.70;43.80;;;10.90;99.90;;;;;;5078556;28;20441;-81
2021/11/11 11:39:37;;;;;;;100.15;41.88;;;11.00;99.90;;;;;;5090512;27;20045;-81
2021/11/11 11:42:13;;;;;;;112.05;44.15;;;11.10;99.90;;;;;;5090107;28;20047;-82
2021/11/11 11:44:41;;;;;;;120.85;46.08;;;11.10;99.90;;;;;;5090432;28;20044;-80
2021/11/11 11:47:10;;;;;;;119.50;44.63;;;11.10;99.90;;;;;;5085159;27;20398;-80
2021/11/11 11:49:37;;;;;;;114.90;46.55;;;11.20;99.90;;;;;;5121575;27;20046;-79
2021/11/11 11:52:05;;;;;;;128.85;49.72;;;11.20;99.90;;;;;;5097178;27;20051;-80
2021/11/11 11:54:41;;;;;;;115.13;45.17;;;11.20;99.90;;;;;;5092523;28;20058;-81
2021/11/11 11:57:19;;;;;;;116.43;44.78;;;11.30;99.90;;;;;;5106209;27;20048;-80
2021/11/11 11:59:51;;;;;;;124.10;46.45;;;11.20;99.90;;;;;;5094968;27;20043;-80
2021/11/11 12:02:21;;;;;;;120.10;43.67;;;11.20;99.90;;;;;;5112781;27;20047;-80
2021/11/11 12:07:34;;;;;;;112.35;44.30;;;11.40;99.90;;;;;;5106467;27;20055;-80
2021/11/11 12:38:45;;;;;;;79.30;33.78;;;11.20;99.90;;;;;;5091523;28;20370;-80
2021/11/11 12:41:17;;;;;;;85.72;37.85;;;11.20;99.90;;;;;;5108516;28;20053;-80
2021/11/11 12:44:04;;;;;;;78.90;35.20;;;11.20;99.90;;;;;;5108059;28;20047;-80
2021/11/11 12:46:46;;;;;;;79.15;35.08;;;11.20;99.90;;;;;;5108014;28;20043;-81
2021/11/11 12:49:33;;;;;;;75.93;33.33;;;11.20;99.90;;;;;;5072168;28;20096;-80
2021/11/11 12:52:19;;;;;;;81.70;33.63;;;11.20;99.90;;;;;;5088800;28;20048;-80
2021/11/11 12:54:46;;;;;;;69.43;33.15;;;11.20;99.90;;;;;;5076481;28;20497;-81
2021/11/11 12:57:14;;;;;;;75.25;33.00;;;11.30;99.90;;;;;;5093301;27;20494;-80
2021/11/11 12:59:41;;;;;;;61.90;30.35;;;11.20;99.90;;;;;;5092962;27;20112;-81
2021/11/11 13:02:09;;;;;;;62.17;29.83;;;11.30;99.90;;;;;;5092847;28;20134;-81
2021/11/11 13:04:47;;;;;;;62.55;29.02;;;11.30;99.90;;;;;;5087261;27;20043;-81
2021/11/11 13:07:29;;;;;;;48.50;26.17;;;11.40;99.90;;;;;;5092212;28;20046;-80
2021/11/11 13:10:08;;;;;;;49.85;26.27;;;11.30;99.90;;;;;;5106401;27;20059;-81
2021/11/11 13:12:37;;;;;;;53.83;28.02;;;11.40;99.90;;;;;;5111235;27;20071;-80
2021/11/11 13:15:10;;;;;;;53.75;27.45;;;11.40;99.90;;;;;;5108713;28;20446;-81
2021/11/11 13:17:55;;;;;;;54.42;27.13;;;11.40;99.90;;;;;;5090968;28;20504;-80
2021/11/11 13:20:36;;;;;;;49.58;25.05;;;11.50;99.90;;;;;;5108716;28;20382;-80
2021/11/11 13:23:40;;;;;;;44.05;25.05;;;11.50;99.90;;;;;;5107884;28;20043;-81
2021/11/11 13:54:16;;;;;;;30.67;16.35;;;12.00;99.90;;;;;;5090132;28;20125;-80
2021/11/11 16:27:37;;;;;;;115.47;47.25;;;11.00;99.90;;;;;;5086398;28;20040;-80
2021/11/11 16:30:11;;;;;;;115.15;48.92;;;11.00;99.90;;;;;;5107312;27;20084;-80
2021/11/11 16:32:37;;;;;;;115.72;50.20;;;11.00;99.90;;;;;;5109476;27;20049;-80
2021/11/11 16:35:06;;;;;;;131.45;50.53;;;11.00;99.90;;;;;;5095536;27;20050;-80
2021/11/11 16:37:33;;;;;;;124.20;52.22;;;11.00;99.90;;;;;;5095621;27;20039;-80
2021/11/11 16:39:59;;;;;;;116.03;50.40;;;11.00;99.90;;;;;;5112351;27;20039;-80
2021/11/11 16:42:25;;;;;;;134.20;54.72;;;11.00;99.90;;;;;;5067851;28;20126;-82
2021/11/11 16:44:51;;;;;;;128.85;53.88;;;11.00;99.90;;;;;;5066895;27;20077;-82